Terminal Aerodrome Forecast
Issued by NWS

Home | Current Version | Previous Version | Graphics & Text | Print | Product List | Glossary On
Versions: 1 2 3 4 5 6 7 8 9 10 11 12
000
FTUS43 KFGF 280520
TAFBJI
TAF
KBJI 280520Z 2806/2906 00000KT P6SM BKN080
     FM281000 VRB03KT P6SM SCT250
     FM281800 04005KT P6SM SCT050=

USA.gov is the U.S. government's official web portal to all federal, state and local government web resources and services.